sensor_id;sensor_type;location;lat;lon;timestamp;P1;durP1;ratioP1;P2;durP2;ratioP2
66721;SDS011;53633;49.932;10.884;2023-07-31T00:01:27;5.30;;;1.20;;
66721;SDS011;53633;49.932;10.884;2023-07-31T00:03:54;7.13;;;1.50;;
66721;SDS011;53633;49.932;10.884;2023-07-31T00:06:20;6.05;;;1.40;;
66721;SDS011;53633;49.932;10.884;2023-07-31T00:08:48;5.47;;;1.17;;
66721;SDS011;53633;49.932;10.884;2023-07-31T00:11:15;8.85;;;1.80;;
66721;SDS011;53633;49.932;10.884;2023-07-31T00:13:42;6.57;;;1.42;;
66721;SDS011;53633;49.932;10.884;2023-07-31T00:16:09;6.70;;;1.45;;
66721;SDS011;53633;49.932;10.884;2023-07-31T00:18:36;5.97;;;1.40;;
66721;SDS011;53633;49.932;10.884;2023-07-31T00:21:02;4.40;;;1.20;;
66721;SDS011;53633;49.932;10.884;2023-07-31T00:23:29;6.45;;;1.70;;
66721;SDS011;53633;49.932;10.884;2023-07-31T00:25:57;6.05;;;1.17;;
66721;SDS011;53633;49.932;10.884;2023-07-31T00:28:24;6.20;;;1.10;;
66721;SDS011;53633;49.932;10.884;2023-07-31T00:30:51;7.55;;;1.58;;
66721;SDS011;53633;49.932;10.884;2023-07-31T00:33:17;4.23;;;1.23;;
66721;SDS011;53633;49.932;10.884;2023-07-31T00:35:44;4.93;;;1.23;;
66721;SDS011;53633;49.932;10.884;2023-07-31T00:38:11;5.47;;;1.20;;
66721;SDS011;53633;49.932;10.884;2023-07-31T00:40:38;4.32;;;1.23;;
66721;SDS011;53633;49.932;10.884;2023-07-31T00:43:06;4.93;;;1.30;;
66721;SDS011;53633;49.932;10.884;2023-07-31T00:45:32;4.97;;;1.27;;
66721;SDS011;53633;49.932;10.884;2023-07-31T00:47:59;4.65;;;1.27;;
66721;SDS011;53633;49.932;10.884;2023-07-31T00:50:26;3.05;;;1.00;;
66721;SDS011;53633;49.932;10.884;2023-07-31T00:52:54;5.10;;;0.95;;
66721;SDS011;53633;49.932;10.884;2023-07-31T00:55:24;8.18;;;1.27;;
66721;SDS011;53633;49.932;10.884;2023-07-31T00:57:50;7.37;;;1.77;;
66721;SDS011;53633;49.932;10.884;2023-07-31T01:00:20;5.57;;;1.33;;
66721;SDS011;53633;49.932;10.884;2023-07-31T01:02:47;6.55;;;1.40;;
66721;SDS011;53633;49.932;10.884;2023-07-31T01:05:14;8.23;;;1.70;;
66721;SDS011;53633;49.932;10.884;2023-07-31T01:07:42;7.43;;;1.55;;
66721;SDS011;53633;49.932;10.884;2023-07-31T01:10:15;4.73;;;1.50;;
66721;SDS011;53633;49.932;10.884;2023-07-31T01:12:45;4.90;;;1.30;;
66721;SDS011;53633;49.932;10.884;2023-07-31T01:15:13;5.15;;;1.60;;
66721;SDS011;53633;49.932;10.884;2023-07-31T01:17:42;6.93;;;2.05;;
66721;SDS011;53633;49.932;10.884;2023-07-31T01:20:10;5.43;;;1.42;;
66721;SDS011;53633;49.932;10.884;2023-07-31T01:26:09;7.68;;;1.60;;
66721;SDS011;53633;49.932;10.884;2023-07-31T01:28:40;5.18;;;1.40;;
66721;SDS011;53633;49.932;10.884;2023-07-31T01:31:18;7.50;;;1.60;;
66721;SDS011;53633;49.932;10.884;2023-07-31T01:33:47;6.65;;;1.50;;
66721;SDS011;53633;49.932;10.884;2023-07-31T01:36:15;4.70;;;1.40;;
66721;SDS011;53633;49.932;10.884;2023-07-31T01:38:42;6.90;;;1.55;;
66721;SDS011;53633;49.932;10.884;2023-07-31T01:41:10;4.40;;;1.40;;
66721;SDS011;53633;49.932;10.884;2023-07-31T01:43:37;6.82;;;1.80;;
66721;SDS011;53633;49.932;10.884;2023-07-31T01:46:03;5.28;;;1.58;;
66721;SDS011;53633;49.932;10.884;2023-07-31T01:48:30;6.63;;;1.33;;
66721;SDS011;53633;49.932;10.884;2023-07-31T01:51:00;6.28;;;1.40;;
66721;SDS011;53633;49.932;10.884;2023-07-31T01:53:26;6.95;;;1.90;;
66721;SDS011;53633;49.932;10.884;2023-07-31T01:55:53;6.05;;;1.40;;
66721;SDS011;53633;49.932;10.884;2023-07-31T01:58:21;7.47;;;1.60;;
66721;SDS011;53633;49.932;10.884;2023-07-31T02:00:48;6.57;;;1.53;;
66721;SDS011;53633;49.932;10.884;2023-07-31T02:03:14;4.32;;;1.50;;
66721;SDS011;53633;49.932;10.884;2023-07-31T02:05:43;4.30;;;1.20;;
66721;SDS011;53633;49.932;10.884;2023-07-31T02:08:10;6.32;;;1.50;;
66721;SDS011;53633;49.932;10.884;2023-07-31T02:10:37;8.27;;;1.75;;
66721;SDS011;53633;49.932;10.884;2023-07-31T02:13:04;7.87;;;1.80;;
66721;SDS011;53633;49.932;10.884;2023-07-31T02:18:14;6.03;;;1.65;;
66721;SDS011;53633;49.932;10.884;2023-07-31T02:20:40;7.22;;;1.80;;
66721;SDS011;53633;49.932;10.884;2023-07-31T02:23:07;9.90;;;1.70;;
66721;SDS011;53633;49.932;10.884;2023-07-31T02:25:34;5.33;;;1.23;;
66721;SDS011;53633;49.932;10.884;2023-07-31T02:28:01;4.05;;;1.42;;
66721;SDS011;53633;49.932;10.884;2023-07-31T02:30:27;5.28;;;1.10;;
66721;SDS011;53633;49.932;10.884;2023-07-31T02:32:55;6.82;;;1.58;;
66721;SDS011;53633;49.932;10.884;2023-07-31T02:35:22;4.45;;;1.45;;
66721;SDS011;53633;49.932;10.884;2023-07-31T02:37:49;5.17;;;1.40;;
66721;SDS011;53633;49.932;10.884;2023-07-31T02:40:16;6.40;;;1.20;;
66721;SDS011;53633;49.932;10.884;2023-07-31T02:42:42;5.70;;;1.40;;
66721;SDS011;53633;49.932;10.884;2023-07-31T02:45:09;7.03;;;1.25;;
66721;SDS011;53633;49.932;10.884;2023-07-31T02:47:36;5.78;;;1.23;;
66721;SDS011;53633;49.932;10.884;2023-07-31T02:50:04;5.40;;;1.37;;
66721;SDS011;53633;49.932;10.884;2023-07-31T02:52:32;6.13;;;1.50;;
66721;SDS011;53633;49.932;10.884;2023-07-31T02:54:58;6.97;;;1.60;;
66721;SDS011;53633;49.932;10.884;2023-07-31T02:57:26;7.72;;;1.67;;
66721;SDS011;53633;49.932;10.884;2023-07-31T02:59:52;6.18;;;1.60;;
66721;SDS011;53633;49.932;10.884;2023-07-31T03:02:19;6.00;;;1.10;;
66721;SDS011;53633;49.932;10.884;2023-07-31T03:04:46;7.88;;;1.42;;
66721;SDS011;53633;49.932;10.884;2023-07-31T03:07:14;4.55;;;1.33;;
66721;SDS011;53633;49.932;10.884;2023-07-31T03:09:41;4.93;;;1.42;;
66721;SDS011;53633;49.932;10.884;2023-07-31T03:12:08;6.38;;;1.50;;
66721;SDS011;53633;49.932;10.884;2023-07-31T03:14:34;5.10;;;1.60;;
66721;SDS011;53633;49.932;10.884;2023-07-31T03:17:01;5.55;;;1.50;;
66721;SDS011;53633;49.932;10.884;2023-07-31T03:19:30;4.57;;;1.40;;
66721;SDS011;53633;49.932;10.884;2023-07-31T03:21:57;5.65;;;1.40;;
66721;SDS011;53633;49.932;10.884;2023-07-31T03:24:25;7.10;;;1.90;;
66721;SDS011;53633;49.932;10.884;2023-07-31T03:26:52;8.33;;;1.87;;
66721;SDS011;53633;49.932;10.884;2023-07-31T03:29:18;8.73;;;1.67;;
66721;SDS011;53633;49.932;10.884;2023-07-31T03:31:48;5.72;;;1.58;;
66721;SDS011;53633;49.932;10.884;2023-07-31T03:34:14;5.47;;;1.23;;
66721;SDS011;53633;49.932;10.884;2023-07-31T03:36:41;4.63;;;1.45;;
66721;SDS011;53633;49.932;10.884;2023-07-31T03:39:08;5.87;;;1.50;;
66721;SDS011;53633;49.932;10.884;2023-07-31T03:41:36;6.43;;;1.35;;
66721;SDS011;53633;49.932;10.884;2023-07-31T03:44:03;6.95;;;1.52;;
66721;SDS011;53633;49.932;10.884;2023-07-31T03:46:29;7.25;;;1.48;;
66721;SDS011;53633;49.932;10.884;2023-07-31T03:48:56;6.18;;;1.40;;
66721;SDS011;53633;49.932;10.884;2023-07-31T03:51:23;6.10;;;1.23;;
66721;SDS011;53633;49.932;10.884;2023-07-31T03:53:50;6.25;;;1.50;;
66721;SDS011;53633;49.932;10.884;2023-07-31T03:56:17;4.82;;;1.15;;
66721;SDS011;53633;49.932;10.884;2023-07-31T03:58:45;4.13;;;1.30;;
66721;SDS011;53633;49.932;10.884;2023-07-31T04:01:11;4.65;;;1.40;;
66721;SDS011;53633;49.932;10.884;2023-07-31T04:03:38;8.07;;;1.40;;
66721;SDS011;53633;49.932;10.884;2023-07-31T04:06:05;5.30;;;1.17;;
66721;SDS011;53633;49.932;10.884;2023-07-31T04:08:31;6.03;;;1.13;;
66721;SDS011;53633;49.932;10.884;2023-07-31T04:10:58;4.72;;;1.38;;
66721;SDS011;53633;49.932;10.884;2023-07-31T04:13:25;6.82;;;1.45;;
66721;SDS011;53633;49.932;10.884;2023-07-31T04:15:53;5.87;;;1.50;;
66721;SDS011;53633;49.932;10.884;2023-07-31T04:18:19;5.07;;;1.27;;
66721;SDS011;53633;49.932;10.884;2023-07-31T04:20:46;9.20;;;1.25;;
66721;SDS011;53633;49.932;10.884;2023-07-31T04:23:13;6.57;;;1.58;;
66721;SDS011;53633;49.932;10.884;2023-07-31T04:25:39;4.90;;;1.27;;
66721;SDS011;53633;49.932;10.884;2023-07-31T04:28:06;4.47;;;1.27;;
66721;SDS011;53633;49.932;10.884;2023-07-31T04:30:33;6.03;;;1.15;;
66721;SDS011;53633;49.932;10.884;2023-07-31T04:33:01;6.93;;;1.23;;
66721;SDS011;53633;49.932;10.884;2023-07-31T04:35:28;4.57;;;1.38;;
66721;SDS011;53633;49.932;10.884;2023-07-31T04:37:54;6.13;;;1.38;;
66721;SDS011;53633;49.932;10.884;2023-07-31T04:40:21;6.73;;;1.37;;
66721;SDS011;53633;49.932;10.884;2023-07-31T04:42:48;5.15;;;1.45;;
66721;SDS011;53633;49.932;10.884;2023-07-31T04:45:14;4.97;;;1.42;;
66721;SDS011;53633;49.932;10.884;2023-07-31T04:47:41;7.00;;;1.30;;
66721;SDS011;53633;49.932;10.884;2023-07-31T04:50:09;6.28;;;1.50;;
66721;SDS011;53633;49.932;10.884;2023-07-31T04:52:36;4.57;;;1.37;;
66721;SDS011;53633;49.932;10.884;2023-07-31T04:55:03;7.47;;;1.30;;
66721;SDS011;53633;49.932;10.884;2023-07-31T04:57:30;6.55;;;1.55;;
66721;SDS011;53633;49.932;10.884;2023-07-31T04:59:56;5.72;;;1.50;;
66721;SDS011;53633;49.932;10.884;2023-07-31T05:02:23;5.47;;;1.40;;
66721;SDS011;53633;49.932;10.884;2023-07-31T05:04:50;7.80;;;1.40;;
66721;SDS011;53633;49.932;10.884;2023-07-31T05:07:18;11.43;;;1.50;;
66721;SDS011;53633;49.932;10.884;2023-07-31T05:09:45;7.30;;;1.50;;
66721;SDS011;53633;49.932;10.884;2023-07-31T05:12:11;5.45;;;1.73;;
66721;SDS011;53633;49.932;10.884;2023-07-31T05:14:38;6.43;;;1.85;;
66721;SDS011;53633;49.932;10.884;2023-07-31T05:17:05;6.00;;;1.47;;
66721;SDS011;53633;49.932;10.884;2023-07-31T05:19:32;5.82;;;1.40;;
66721;SDS011;53633;49.932;10.884;2023-07-31T05:21:58;6.50;;;1.42;;
66721;SDS011;53633;49.932;10.884;2023-07-31T05:24:27;5.32;;;1.25;;
66721;SDS011;53633;49.932;10.884;2023-07-31T05:26:53;6.05;;;1.38;;
66721;SDS011;53633;49.932;10.884;2023-07-31T05:29:20;5.80;;;1.33;;
66721;SDS011;53633;49.932;10.884;2023-07-31T05:31:47;7.93;;;1.90;;
66721;SDS011;53633;49.932;10.884;2023-07-31T05:34:13;5.93;;;1.48;;
66721;SDS011;53633;49.932;10.884;2023-07-31T05:36:40;8.00;;;1.92;;
66721;SDS011;53633;49.932;10.884;2023-07-31T05:39:07;5.22;;;1.65;;
66721;SDS011;53633;49.932;10.884;2023-07-31T05:41:36;7.83;;;1.50;;
66721;SDS011;53633;49.932;10.884;2023-07-31T05:44:02;9.30;;;1.70;;
66721;SDS011;53633;49.932;10.884;2023-07-31T05:46:29;6.95;;;1.98;;
66721;SDS011;53633;49.932;10.884;2023-07-31T05:48:56;6.22;;;1.63;;
66721;SDS011;53633;49.932;10.884;2023-07-31T05:51:23;11.95;;;2.08;;
66721;SDS011;53633;49.932;10.884;2023-07-31T05:53:50;7.10;;;1.53;;
66721;SDS011;53633;49.932;10.884;2023-07-31T05:56:17;6.15;;;1.50;;
66721;SDS011;53633;49.932;10.884;2023-07-31T05:58:45;4.90;;;1.75;;
66721;SDS011;53633;49.932;10.884;2023-07-31T06:01:11;8.23;;;1.67;;
66721;SDS011;53633;49.932;10.884;2023-07-31T06:03:38;6.90;;;1.90;;
66721;SDS011;53633;49.932;10.884;2023-07-31T06:06:05;7.60;;;1.97;;
66721;SDS011;53633;49.932;10.884;2023-07-31T06:08:32;5.55;;;1.50;;
66721;SDS011;53633;49.932;10.884;2023-07-31T06:10:58;3.55;;;1.40;;
66721;SDS011;53633;49.932;10.884;2023-07-31T06:13:25;5.82;;;1.65;;
66721;SDS011;53633;49.932;10.884;2023-07-31T06:15:53;6.55;;;1.65;;
66721;SDS011;53633;49.932;10.884;2023-07-31T06:18:20;7.67;;;1.63;;
66721;SDS011;53633;49.932;10.884;2023-07-31T06:20:47;6.53;;;1.60;;
66721;SDS011;53633;49.932;10.884;2023-07-31T06:23:13;5.72;;;1.40;;
66721;SDS011;53633;49.932;10.884;2023-07-31T06:25:40;4.80;;;1.60;;
66721;SDS011;53633;49.932;10.884;2023-07-31T06:28:07;6.95;;;1.60;;
66721;SDS011;53633;49.932;10.884;2023-07-31T06:30:33;4.63;;;1.67;;
66721;SDS011;53633;49.932;10.884;2023-07-31T06:33:01;9.02;;;1.77;;
66721;SDS011;53633;49.932;10.884;2023-07-31T06:35:28;9.48;;;1.80;;
66721;SDS011;53633;49.932;10.884;2023-07-31T06:37:55;7.88;;;1.77;;
66721;SDS011;53633;49.932;10.884;2023-07-31T06:40:22;6.68;;;1.92;;
66721;SDS011;53633;49.932;10.884;2023-07-31T06:42:48;4.63;;;1.23;;
66721;SDS011;53633;49.932;10.884;2023-07-31T06:45:15;6.90;;;1.33;;
66721;SDS011;53633;49.932;10.884;2023-07-31T06:47:42;7.75;;;1.75;;
66721;SDS011;53633;49.932;10.884;2023-07-31T06:50:10;6.10;;;1.70;;
66721;SDS011;53633;49.932;10.884;2023-07-31T06:52:37;5.07;;;1.80;;
66721;SDS011;53633;49.932;10.884;2023-07-31T06:55:08;6.80;;;2.00;;
66721;SDS011;53633;49.932;10.884;2023-07-31T06:57:43;6.13;;;1.52;;
66721;SDS011;53633;49.932;10.884;2023-07-31T07:00:10;9.57;;;1.73;;
66721;SDS011;53633;49.932;10.884;2023-07-31T07:02:37;5.78;;;1.67;;
66721;SDS011;53633;49.932;10.884;2023-07-31T07:05:04;7.20;;;1.65;;
66721;SDS011;53633;49.932;10.884;2023-07-31T07:07:32;6.53;;;1.73;;
66721;SDS011;53633;49.932;10.884;2023-07-31T07:09:59;6.25;;;1.70;;
66721;SDS011;53633;49.932;10.884;2023-07-31T07:12:26;8.02;;;1.48;;
66721;SDS011;53633;49.932;10.884;2023-07-31T07:14:53;6.07;;;1.40;;
66721;SDS011;53633;49.932;10.884;2023-07-31T07:17:19;5.55;;;1.20;;
66721;SDS011;53633;49.932;10.884;2023-07-31T07:19:47;6.37;;;1.50;;
66721;SDS011;53633;49.932;10.884;2023-07-31T07:22:14;5.93;;;1.50;;
66721;SDS011;53633;49.932;10.884;2023-07-31T07:24:42;5.97;;;1.50;;
66721;SDS011;53633;49.932;10.884;2023-07-31T07:27:09;9.63;;;2.00;;
66721;SDS011;53633;49.932;10.884;2023-07-31T07:29:37;4.93;;;1.30;;
66721;SDS011;53633;49.932;10.884;2023-07-31T07:32:05;7.93;;;2.17;;
66721;SDS011;53633;49.932;10.884;2023-07-31T07:34:32;8.38;;;1.58;;
66721;SDS011;53633;49.932;10.884;2023-07-31T07:36:58;8.13;;;1.77;;
66721;SDS011;53633;49.932;10.884;2023-07-31T07:39:25;7.38;;;1.83;;
66721;SDS011;53633;49.932;10.884;2023-07-31T07:41:53;7.72;;;1.70;;
66721;SDS011;53633;49.932;10.884;2023-07-31T07:44:20;7.37;;;1.57;;
66721;SDS011;53633;49.932;10.884;2023-07-31T07:46:46;6.82;;;1.52;;
66721;SDS011;53633;49.932;10.884;2023-07-31T07:49:13;7.45;;;1.88;;
66721;SDS011;53633;49.932;10.884;2023-07-31T07:51:40;6.82;;;1.73;;
66721;SDS011;53633;49.932;10.884;2023-07-31T07:54:07;7.97;;;1.77;;
66721;SDS011;53633;49.932;10.884;2023-07-31T07:56:34;7.93;;;2.13;;
66721;SDS011;53633;49.932;10.884;2023-07-31T07:59:02;6.30;;;1.90;;
66721;SDS011;53633;49.932;10.884;2023-07-31T08:01:29;6.20;;;1.92;;
66721;SDS011;53633;49.932;10.884;2023-07-31T08:03:55;4.97;;;1.50;;
66721;SDS011;53633;49.932;10.884;2023-07-31T08:06:22;6.63;;;1.77;;
66721;SDS011;53633;49.932;10.884;2023-07-31T08:08:49;7.00;;;1.60;;
66721;SDS011;53633;49.932;10.884;2023-07-31T08:11:16;5.75;;;1.60;;
66721;SDS011;53633;49.932;10.884;2023-07-31T08:13:43;4.93;;;1.75;;
66721;SDS011;53633;49.932;10.884;2023-07-31T08:16:10;8.98;;;1.85;;
66721;SDS011;53633;49.932;10.884;2023-07-31T08:18:37;6.38;;;1.95;;
66721;SDS011;53633;49.932;10.884;2023-07-31T08:21:04;7.33;;;2.20;;
66721;SDS011;53633;49.932;10.884;2023-07-31T08:23:31;5.93;;;1.80;;
66721;SDS011;53633;49.932;10.884;2023-07-31T08:25:57;5.63;;;1.50;;
66721;SDS011;53633;49.932;10.884;2023-07-31T08:28:25;8.23;;;1.80;;
66721;SDS011;53633;49.932;10.884;2023-07-31T08:30:52;4.30;;;1.38;;
66721;SDS011;53633;49.932;10.884;2023-07-31T08:33:20;5.63;;;1.57;;
66721;SDS011;53633;49.932;10.884;2023-07-31T08:35:47;8.18;;;2.10;;
66721;SDS011;53633;49.932;10.884;2023-07-31T08:38:13;6.65;;;1.92;;
66721;SDS011;53633;49.932;10.884;2023-07-31T08:40:40;7.07;;;1.88;;
66721;SDS011;53633;49.932;10.884;2023-07-31T08:43:07;7.32;;;2.38;;
66721;SDS011;53633;49.932;10.884;2023-07-31T08:45:34;6.23;;;1.93;;
66721;SDS011;53633;49.932;10.884;2023-07-31T08:48:02;6.10;;;1.88;;
66721;SDS011;53633;49.932;10.884;2023-07-31T08:50:30;6.78;;;2.08;;
66721;SDS011;53633;49.932;10.884;2023-07-31T08:52:57;5.18;;;2.10;;
66721;SDS011;53633;49.932;10.884;2023-07-31T08:55:24;5.68;;;1.60;;
66721;SDS011;53633;49.932;10.884;2023-07-31T08:57:51;7.03;;;1.70;;
66721;SDS011;53633;49.932;10.884;2023-07-31T09:00:18;5.18;;;1.58;;
66721;SDS011;53633;49.932;10.884;2023-07-31T09:02:46;5.82;;;1.50;;
66721;SDS011;53633;49.932;10.884;2023-07-31T09:05:24;4.97;;;1.48;;
66721;SDS011;53633;49.932;10.884;2023-07-31T09:07:54;7.82;;;1.70;;
66721;SDS011;53633;49.932;10.884;2023-07-31T09:10:22;5.50;;;1.50;;
66721;SDS011;53633;49.932;10.884;2023-07-31T09:12:50;6.90;;;1.70;;
66721;SDS011;53633;49.932;10.884;2023-07-31T09:15:18;5.50;;;1.60;;
66721;SDS011;53633;49.932;10.884;2023-07-31T09:18:01;6.80;;;1.35;;
66721;SDS011;53633;49.932;10.884;2023-07-31T09:20:29;8.05;;;1.80;;
66721;SDS011;53633;49.932;10.884;2023-07-31T09:22:57;6.67;;;2.03;;
66721;SDS011;53633;49.932;10.884;2023-07-31T09:25:31;5.53;;;1.40;;
66721;SDS011;53633;49.932;10.884;2023-07-31T09:27:59;6.07;;;1.33;;
66721;SDS011;53633;49.932;10.884;2023-07-31T09:30:29;7.28;;;1.83;;
66721;SDS011;53633;49.932;10.884;2023-07-31T09:33:00;4.95;;;1.73;;
66721;SDS011;53633;49.932;10.884;2023-07-31T09:35:41;7.43;;;1.90;;
66721;SDS011;53633;49.932;10.884;2023-07-31T09:38:10;7.30;;;1.42;;
66721;SDS011;53633;49.932;10.884;2023-07-31T09:40:38;6.00;;;1.60;;
66721;SDS011;53633;49.932;10.884;2023-07-31T09:43:07;5.72;;;1.42;;
66721;SDS011;53633;49.932;10.884;2023-07-31T09:45:35;6.18;;;1.60;;
66721;SDS011;53633;49.932;10.884;2023-07-31T09:48:08;5.53;;;1.53;;
66721;SDS011;53633;49.932;10.884;2023-07-31T09:50:36;6.78;;;1.75;;
66721;SDS011;53633;49.932;10.884;2023-07-31T09:53:03;7.32;;;1.85;;
66721;SDS011;53633;49.932;10.884;2023-07-31T09:55:31;5.68;;;1.40;;
66721;SDS011;53633;49.932;10.884;2023-07-31T09:57:58;6.25;;;1.42;;
66721;SDS011;53633;49.932;10.884;2023-07-31T10:00:29;5.00;;;1.80;;
66721;SDS011;53633;49.932;10.884;2023-07-31T10:02:57;4.97;;;1.35;;
66721;SDS011;53633;49.932;10.884;2023-07-31T10:05:26;5.43;;;1.83;;
66721;SDS011;53633;49.932;10.884;2023-07-31T10:08:00;5.68;;;1.80;;
66721;SDS011;53633;49.932;10.884;2023-07-31T10:10:26;5.43;;;1.90;;
66721;SDS011;53633;49.932;10.884;2023-07-31T10:12:55;5.10;;;2.13;;
66721;SDS011;53633;49.932;10.884;2023-07-31T10:15:23;5.18;;;1.92;;
66721;SDS011;53633;49.932;10.884;2023-07-31T10:17:51;5.97;;;1.98;;
66721;SDS011;53633;49.932;10.884;2023-07-31T10:20:18;5.85;;;1.63;;
66721;SDS011;53633;49.932;10.884;2023-07-31T10:22:46;5.82;;;1.63;;
66721;SDS011;53633;49.932;10.884;2023-07-31T10:25:14;4.10;;;1.77;;
66721;SDS011;53633;49.932;10.884;2023-07-31T10:27:42;6.75;;;1.75;;
66721;SDS011;53633;49.932;10.884;2023-07-31T10:30:11;6.57;;;1.90;;
66721;SDS011;53633;49.932;10.884;2023-07-31T10:32:44;6.57;;;1.75;;
66721;SDS011;53633;49.932;10.884;2023-07-31T10:35:12;5.25;;;1.77;;
66721;SDS011;53633;49.932;10.884;2023-07-31T10:37:40;7.17;;;2.03;;
66721;SDS011;53633;49.932;10.884;2023-07-31T10:40:10;7.07;;;1.90;;
66721;SDS011;53633;49.932;10.884;2023-07-31T10:42:38;5.88;;;1.98;;
66721;SDS011;53633;49.932;10.884;2023-07-31T10:45:13;5.47;;;1.80;;
66721;SDS011;53633;49.932;10.884;2023-07-31T10:47:42;9.07;;;2.22;;
66721;SDS011;53633;49.932;10.884;2023-07-31T10:50:13;5.20;;;1.60;;
66721;SDS011;53633;49.932;10.884;2023-07-31T10:52:43;6.97;;;2.08;;
66721;SDS011;53633;49.932;10.884;2023-07-31T10:55:16;7.88;;;2.58;;
66721;SDS011;53633;49.932;10.884;2023-07-31T10:57:50;6.00;;;1.90;;
66721;SDS011;53633;49.932;10.884;2023-07-31T11:00:19;5.78;;;1.75;;
66721;SDS011;53633;49.932;10.884;2023-07-31T11:03:01;5.10;;;1.90;;
66721;SDS011;53633;49.932;10.884;2023-07-31T11:05:40;7.53;;;1.90;;
66721;SDS011;53633;49.932;10.884;2023-07-31T11:08:11;6.40;;;1.92;;
66721;SDS011;53633;49.932;10.884;2023-07-31T11:10:39;6.00;;;1.98;;
66721;SDS011;53633;49.932;10.884;2023-07-31T11:13:05;5.25;;;1.90;;
66721;SDS011;53633;49.932;10.884;2023-07-31T11:15:33;7.77;;;2.00;;
66721;SDS011;53633;49.932;10.884;2023-07-31T11:18:00;6.68;;;2.03;;
66721;SDS011;53633;49.932;10.884;2023-07-31T11:20:28;5.43;;;2.20;;
66721;SDS011;53633;49.932;10.884;2023-07-31T11:22:57;8.00;;;1.92;;
66721;SDS011;53633;49.932;10.884;2023-07-31T11:25:28;6.50;;;1.67;;
66721;SDS011;53633;49.932;10.884;2023-07-31T11:27:56;7.10;;;2.50;;
66721;SDS011;53633;49.932;10.884;2023-07-31T11:30:22;6.22;;;2.15;;
66721;SDS011;53633;49.932;10.884;2023-07-31T11:32:50;8.90;;;2.05;;
66721;SDS011;53633;49.932;10.884;2023-07-31T11:35:17;6.55;;;2.10;;
66721;SDS011;53633;49.932;10.884;2023-07-31T11:37:44;7.65;;;2.00;;
66721;SDS011;53633;49.932;10.884;2023-07-31T11:40:11;7.73;;;1.80;;
66721;SDS011;53633;49.932;10.884;2023-07-31T11:42:38;7.65;;;2.00;;
66721;SDS011;53633;49.932;10.884;2023-07-31T11:45:05;7.38;;;1.98;;
66721;SDS011;53633;49.932;10.884;2023-07-31T11:47:33;7.10;;;2.05;;
66721;SDS011;53633;49.932;10.884;2023-07-31T11:50:03;5.50;;;1.95;;
66721;SDS011;53633;49.932;10.884;2023-07-31T11:52:43;6.07;;;1.83;;
66721;SDS011;53633;49.932;10.884;2023-07-31T11:55:12;5.07;;;2.00;;
66721;SDS011;53633;49.932;10.884;2023-07-31T11:57:39;5.93;;;1.95;;
66721;SDS011;53633;49.932;10.884;2023-07-31T12:00:08;6.75;;;1.90;;
66721;SDS011;53633;49.932;10.884;2023-07-31T12:02:36;6.95;;;1.85;;
66721;SDS011;53633;49.932;10.884;2023-07-31T12:05:09;8.77;;;2.30;;
66721;SDS011;53633;49.932;10.884;2023-07-31T12:07:47;6.65;;;2.40;;
66721;SDS011;53633;49.932;10.884;2023-07-31T12:10:28;6.88;;;2.08;;
66721;SDS011;53633;49.932;10.884;2023-07-31T12:12:59;6.32;;;2.05;;
66721;SDS011;53633;49.932;10.884;2023-07-31T12:15:34;9.23;;;2.10;;
66721;SDS011;53633;49.932;10.884;2023-07-31T12:18:06;9.20;;;1.73;;
66721;SDS011;53633;49.932;10.884;2023-07-31T12:20:35;5.80;;;2.10;;
66721;SDS011;53633;49.932;10.884;2023-07-31T12:23:07;8.18;;;2.35;;
66721;SDS011;53633;49.932;10.884;2023-07-31T12:25:38;5.90;;;2.00;;
66721;SDS011;53633;49.932;10.884;2023-07-31T12:28:06;9.00;;;2.10;;
66721;SDS011;53633;49.932;10.884;2023-07-31T12:30:34;8.27;;;2.60;;
66721;SDS011;53633;49.932;10.884;2023-07-31T12:33:03;10.35;;;2.20;;
66721;SDS011;53633;49.932;10.884;2023-07-31T12:35:40;7.88;;;2.38;;
66721;SDS011;53633;49.932;10.884;2023-07-31T12:38:08;7.57;;;2.03;;
66721;SDS011;53633;49.932;10.884;2023-07-31T12:40:36;6.35;;;2.20;;
66721;SDS011;53633;49.932;10.884;2023-07-31T12:43:04;8.73;;;2.20;;
66721;SDS011;53633;49.932;10.884;2023-07-31T12:45:30;7.90;;;2.33;;
66721;SDS011;53633;49.932;10.884;2023-07-31T12:47:57;5.80;;;1.77;;
66721;SDS011;53633;49.932;10.884;2023-07-31T12:50:24;6.70;;;2.25;;
66721;SDS011;53633;49.932;10.884;2023-07-31T12:52:52;6.55;;;1.70;;
66721;SDS011;53633;49.932;10.884;2023-07-31T12:55:19;7.40;;;1.90;;
66721;SDS011;53633;49.932;10.884;2023-07-31T12:57:46;7.45;;;2.10;;
66721;SDS011;53633;49.932;10.884;2023-07-31T13:00:13;6.20;;;2.08;;
66721;SDS011;53633;49.932;10.884;2023-07-31T13:02:40;6.10;;;1.80;;
66721;SDS011;53633;49.932;10.884;2023-07-31T13:05:07;6.40;;;1.95;;
66721;SDS011;53633;49.932;10.884;2023-07-31T13:07:34;9.23;;;2.00;;
66721;SDS011;53633;49.932;10.884;2023-07-31T13:10:02;5.15;;;1.50;;
66721;SDS011;53633;49.932;10.884;2023-07-31T13:12:29;7.65;;;2.03;;
66721;SDS011;53633;49.932;10.884;2023-07-31T13:14:56;9.25;;;2.50;;
66721;SDS011;53633;49.932;10.884;2023-07-31T13:17:23;5.93;;;1.80;;
66721;SDS011;53633;49.932;10.884;2023-07-31T13:19:50;8.07;;;1.90;;
66721;SDS011;53633;49.932;10.884;2023-07-31T13:22:16;6.32;;;1.83;;
66721;SDS011;53633;49.932;10.884;2023-07-31T13:24:43;6.00;;;2.00;;
66721;SDS011;53633;49.932;10.884;2023-07-31T13:27:11;9.85;;;2.50;;
66721;SDS011;53633;49.932;10.884;2023-07-31T13:29:38;7.15;;;1.90;;
66721;SDS011;53633;49.932;10.884;2023-07-31T13:32:05;11.03;;;2.93;;
66721;SDS011;53633;49.932;10.884;2023-07-31T13:34:31;5.85;;;2.10;;
66721;SDS011;53633;49.932;10.884;2023-07-31T13:36:58;7.03;;;2.50;;
66721;SDS011;53633;49.932;10.884;2023-07-31T13:39:25;8.43;;;2.30;;
66721;SDS011;53633;49.932;10.884;2023-07-31T13:41:52;6.68;;;2.13;;
66721;SDS011;53633;49.932;10.884;2023-07-31T13:44:20;7.17;;;2.60;;
66721;SDS011;53633;49.932;10.884;2023-07-31T13:46:46;7.97;;;2.28;;
66721;SDS011;53633;49.932;10.884;2023-07-31T13:49:13;6.63;;;1.98;;
66721;SDS011;53633;49.932;10.884;2023-07-31T13:51:40;6.93;;;2.00;;
66721;SDS011;53633;49.932;10.884;2023-07-31T13:54:06;8.00;;;2.20;;
66721;SDS011;53633;49.932;10.884;2023-07-31T13:56:33;9.23;;;2.43;;
66721;SDS011;53633;49.932;10.884;2023-07-31T13:59:00;7.05;;;2.10;;
66721;SDS011;53633;49.932;10.884;2023-07-31T14:01:28;8.93;;;2.50;;
66721;SDS011;53633;49.932;10.884;2023-07-31T14:03:55;7.18;;;1.90;;
66721;SDS011;53633;49.932;10.884;2023-07-31T14:06:21;6.80;;;2.10;;
66721;SDS011;53633;49.932;10.884;2023-07-31T14:08:48;8.10;;;2.30;;
66721;SDS011;53633;49.932;10.884;2023-07-31T14:11:15;8.18;;;2.53;;
66721;SDS011;53633;49.932;10.884;2023-07-31T14:13:42;9.05;;;2.75;;
66721;SDS011;53633;49.932;10.884;2023-07-31T14:16:08;6.55;;;2.22;;
66721;SDS011;53633;49.932;10.884;2023-07-31T14:18:36;8.88;;;2.88;;
66721;SDS011;53633;49.932;10.884;2023-07-31T14:21:03;8.83;;;2.50;;
66721;SDS011;53633;49.932;10.884;2023-07-31T14:23:30;9.48;;;2.63;;
66721;SDS011;53633;49.932;10.884;2023-07-31T14:25:57;6.38;;;2.03;;
66721;SDS011;53633;49.932;10.884;2023-07-31T14:28:24;16.55;;;2.58;;
66721;SDS011;53633;49.932;10.884;2023-07-31T14:30:51;8.77;;;1.95;;
66721;SDS011;53633;49.932;10.884;2023-07-31T14:33:18;7.93;;;2.20;;
66721;SDS011;53633;49.932;10.884;2023-07-31T14:35:47;8.93;;;2.40;;
66721;SDS011;53633;49.932;10.884;2023-07-31T14:38:13;7.85;;;2.00;;
66721;SDS011;53633;49.932;10.884;2023-07-31T14:40:41;7.22;;;2.20;;
66721;SDS011;53633;49.932;10.884;2023-07-31T14:43:08;8.95;;;2.10;;